createdAt,value
2024-01-10T06:05:46.715Z,-3.74
2024-01-10T06:11:27.143Z,-3.84
2024-01-10T06:17:07.566Z,-3.81
2024-01-10T06:22:48.103Z,-3.77
2024-01-10T06:28:28.258Z,-3.73
2024-01-10T06:34:09.206Z,-3.67
2024-01-10T06:39:49.084Z,-3.66
2024-01-10T06:45:30.134Z,-3.59
2024-01-10T06:51:14.490Z,-3.58
2024-01-10T06:56:54.567Z,-3.53
2024-01-10T07:02:36.841Z,-3.46
2024-01-10T07:08:18.411Z,-3.36
2024-01-10T07:13:59.959Z,-3.33
2024-01-10T07:19:42.313Z,-3.28
2024-01-10T07:25:24.848Z,-3.20
2024-01-10T07:31:05.517Z,-3.14
2024-01-10T07:36:46.229Z,-3.04
2024-01-10T07:42:26.745Z,-3.05
2024-01-10T07:48:08.158Z,-2.99
2024-01-10T07:53:49.122Z,-2.91
2024-01-10T07:59:30.134Z,-2.86
2024-01-10T08:05:11.287Z,-2.81
2024-01-10T08:10:52.101Z,-2.74
2024-01-10T08:16:33.136Z,-2.66
2024-01-10T08:22:14.266Z,-2.61
2024-01-10T08:27:56.419Z,-2.56
2024-01-10T08:33:36.984Z,-2.50
2024-01-10T08:39:18.100Z,-2.40
2024-01-10T08:44:59.320Z,-2.36
2024-01-10T08:50:40.435Z,-2.28
2024-01-10T08:56:21.650Z,-2.23
2024-01-10T09:02:03.751Z,-2.24
2024-01-10T09:07:44.896Z,-2.16
2024-01-10T09:13:26.414Z,-2.00
2024-01-10T09:19:10.231Z,-2.00
2024-01-10T09:24:49.594Z,-1.99
2024-01-10T09:30:30.498Z,-1.97
2024-01-10T09:36:10.979Z,-1.94
2024-01-10T09:41:51.655Z,-1.89
2024-01-10T09:47:34.665Z,-1.82
2024-01-10T09:53:20.756Z,-1.77
2024-01-10T09:59:05.790Z,-1.67
2024-01-10T10:05:29.540Z,-1.37
2024-01-10T10:11:16.751Z,-1.47
2024-01-10T10:16:57.288Z,-1.45
2024-01-10T10:22:39.235Z,-1.44
2024-01-10T10:28:25.414Z,-1.49
2024-01-10T10:34:02.977Z,-1.40
2024-01-10T10:39:43.448Z,-1.38
2024-01-10T10:45:27.271Z,-1.32
2024-01-10T10:51:11.184Z,-1.22
2024-01-10T10:56:54.781Z,-1.16
2024-01-10T11:02:36.103Z,-1.13
2024-01-10T11:08:20.758Z,-1.11
2024-01-10T11:14:04.738Z,-1.00
2024-01-10T11:20:23.236Z,-0.99
2024-01-10T11:26:04.000Z,-0.93
2024-01-10T11:31:31.087Z,-0.90
2024-01-10T11:37:13.103Z,-0.88
2024-01-10T11:42:54.951Z,-0.83
2024-01-10T11:48:21.089Z,-0.84
2024-01-10T11:54:01.469Z,-0.91
2024-01-10T11:59:46.041Z,-0.88
2024-01-10T12:05:26.626Z,-0.87
2024-01-10T12:11:07.984Z,-0.83
2024-01-10T12:16:48.840Z,-0.82
2024-01-10T12:22:31.215Z,-0.80
2024-01-10T12:28:15.880Z,-0.85
2024-01-10T12:34:04.516Z,-0.83
2024-01-10T12:39:44.712Z,-0.83
2024-01-10T12:45:26.303Z,-0.84
2024-01-10T12:51:07.207Z,-0.79
2024-01-10T12:56:47.208Z,-0.77
2024-01-10T13:05:24.047Z,-0.57
2024-01-10T13:11:09.635Z,-0.73
2024-01-10T13:16:57.064Z,-0.72
2024-01-10T13:22:32.800Z,-0.76
2024-01-10T13:28:14.458Z,-0.79
2024-01-10T13:33:56.603Z,-0.77
2024-01-10T13:39:38.064Z,-0.77
2024-01-10T13:45:18.951Z,-0.79
2024-01-10T13:51:00.121Z,-0.80
2024-01-10T13:56:41.261Z,-0.83
2024-01-10T14:02:22.894Z,-0.83
2024-01-10T14:08:04.323Z,-0.83
2024-01-10T14:13:45.075Z,-0.86
2024-01-10T14:19:25.299Z,-0.90
2024-01-10T14:25:06.549Z,-0.91
2024-01-10T14:30:50.628Z,-0.91
2024-01-10T14:36:31.938Z,-0.91
2024-01-10T14:42:14.318Z,-0.92
2024-01-10T14:47:54.993Z,-0.92
2024-01-10T14:53:37.033Z,-0.92
2024-01-10T14:59:18.923Z,-0.89
2024-01-10T15:05:00.672Z,-0.92
2024-01-10T15:10:43.085Z,-0.94
2024-01-10T15:16:23.525Z,-0.94
2024-01-10T15:22:06.470Z,-0.96
2024-01-10T15:27:48.486Z,-1.01
2024-01-10T15:33:30.672Z,-1.01
2024-01-10T15:39:13.938Z,-0.98
2024-01-10T15:44:54.744Z,-1.00
2024-01-10T15:50:35.772Z,-1.04
2024-01-10T15:56:16.270Z,-1.07
2024-01-10T16:05:31.973Z,-0.95
2024-01-10T16:11:12.528Z,-1.04
2024-01-10T16:16:52.826Z,-1.01
2024-01-10T16:22:35.367Z,-1.03
2024-01-10T16:28:15.884Z,-1.05
2024-01-10T16:33:56.690Z,-1.09
2024-01-10T16:39:39.717Z,-1.09
2024-01-10T16:45:20.684Z,-1.05
2024-01-10T16:51:01.886Z,-1.05
2024-01-10T16:56:42.861Z,-1.06
2024-01-10T17:02:23.292Z,-1.06
2024-01-10T17:08:04.451Z,-1.01
2024-01-10T17:13:44.973Z,-0.99
2024-01-10T17:19:25.750Z,-0.96
2024-01-10T17:25:06.810Z,-1.00
2024-01-10T17:30:47.277Z,-1.03
2024-01-10T17:36:32.743Z,-1.02
2024-01-10T17:42:14.768Z,-1.03
2024-01-10T17:47:58.961Z,-1.06
2024-01-10T17:53:40.047Z,-1.06
2024-01-10T17:59:20.776Z,-1.08
2024-01-10T18:05:01.918Z,-1.09
2024-01-10T18:10:44.662Z,-1.06
2024-01-10T18:16:25.755Z,-1.08
2024-01-10T18:22:06.561Z,-1.11
2024-01-10T18:27:47.538Z,-1.11
2024-01-10T18:33:28.457Z,-1.13
2024-01-10T18:39:11.028Z,-1.18
2024-01-10T18:44:51.584Z,-1.21
2024-01-10T18:50:32.174Z,-1.20
2024-01-10T18:56:12.890Z,-1.20
2024-01-10T19:05:32.106Z,-1.05
2024-01-10T19:11:13.772Z,-1.18
2024-01-10T19:16:53.913Z,-1.20
2024-01-10T19:22:34.338Z,-1.20
2024-01-10T19:28:14.973Z,-1.21
2024-01-10T19:33:55.680Z,-1.19
2024-01-10T19:39:36.008Z,-1.22
2024-01-10T19:45:16.187Z,-1.15
2024-01-10T19:50:38.421Z,-1.12
2024-01-10T19:56:19.328Z,-1.19
2024-01-10T20:02:00.093Z,-1.16
2024-01-10T20:07:41.888Z,-1.20
2024-01-10T20:13:22.008Z,-1.22
2024-01-10T20:19:02.899Z,-1.20
2024-01-10T20:24:43.691Z,-1.18
2024-01-10T20:30:24.081Z,-1.19
2024-01-10T20:36:05.250Z,-1.21
2024-01-10T20:41:46.289Z,-1.19
2024-01-10T20:47:30.117Z,-1.22
2024-01-10T20:53:13.355Z,-1.20
2024-01-10T20:58:53.603Z,-1.20
2024-01-10T21:04:34.225Z,-1.14
2024-01-10T21:10:15.205Z,-1.15
2024-01-10T21:15:56.094Z,-1.16
2024-01-10T21:21:38.326Z,-1.17
2024-01-10T21:27:19.927Z,-1.19
2024-01-10T21:33:05.617Z,-1.20
2024-01-10T21:38:28.787Z,-1.20
2024-01-10T21:44:09.227Z,-1.18
2024-01-10T21:49:50.767Z,-1.19
2024-01-10T21:55:31.938Z,-1.18
2024-01-10T22:05:57.750Z,-1.04
2024-01-10T22:11:39.529Z,-1.16
2024-01-10T22:17:20.171Z,-1.15
2024-01-10T22:23:00.888Z,-1.16
2024-01-10T22:28:41.618Z,-1.11
2024-01-10T22:34:21.945Z,-1.18
2024-01-10T22:40:03.596Z,-1.17
2024-01-10T22:45:44.963Z,-1.15
2024-01-10T22:51:26.281Z,-1.17
2024-01-10T22:57:06.645Z,-1.24
2024-01-10T23:02:48.439Z,-1.23
2024-01-10T23:08:28.857Z,-1.27
2024-01-10T23:14:10.184Z,-1.27
2024-01-10T23:19:51.235Z,-1.29
2024-01-10T23:25:32.684Z,-1.32
2024-01-10T23:31:19.040Z,-1.35
2024-01-10T23:36:59.427Z,-1.31
2024-01-10T23:42:41.269Z,-1.32
2024-01-10T23:48:23.117Z,-1.35
2024-01-10T23:54:03.618Z,-1.40
2024-01-10T23:59:46.040Z,-1.37
